sensor_id;sensor_type;location;lat;lon;timestamp;P1;durP1;ratioP1;P2;durP2;ratioP2
10565;SDS011;5331;48.148;16.326;2022-08-03T00:02:11;3.10;;;2.90;;
10565;SDS011;5331;48.148;16.326;2022-08-03T00:04:39;2.85;;;2.65;;
10565;SDS011;5331;48.148;16.326;2022-08-03T00:07:06;2.53;;;2.42;;
10565;SDS011;5331;48.148;16.326;2022-08-03T00:09:33;5.10;;;2.58;;
10565;SDS011;5331;48.148;16.326;2022-08-03T00:12:00;3.58;;;2.78;;
10565;SDS011;5331;48.148;16.326;2022-08-03T00:14:27;2.90;;;2.70;;
10565;SDS011;5331;48.148;16.326;2022-08-03T00:16:53;2.92;;;2.70;;
10565;SDS011;5331;48.148;16.326;2022-08-03T00:19:20;2.80;;;2.70;;
10565;SDS011;5331;48.148;16.326;2022-08-03T00:21:49;2.90;;;2.70;;
10565;SDS011;5331;48.148;16.326;2022-08-03T00:24:16;2.80;;;2.58;;
10565;SDS011;5331;48.148;16.326;2022-08-03T00:26:43;2.92;;;2.72;;
10565;SDS011;5331;48.148;16.326;2022-08-03T00:29:09;2.67;;;2.50;;
10565;SDS011;5331;48.148;16.326;2022-08-03T00:31:36;2.60;;;2.40;;
10565;SDS011;5331;48.148;16.326;2022-08-03T00:34:03;2.47;;;2.38;;
10565;SDS011;5331;48.148;16.326;2022-08-03T00:36:30;3.22;;;2.72;;
10565;SDS011;5331;48.148;16.326;2022-08-03T00:38:59;2.97;;;2.78;;
10565;SDS011;5331;48.148;16.326;2022-08-03T00:41:26;2.85;;;2.63;;
10565;SDS011;5331;48.148;16.326;2022-08-03T00:43:52;2.67;;;2.45;;
10565;SDS011;5331;48.148;16.326;2022-08-03T00:46:19;2.80;;;2.60;;
10565;SDS011;5331;48.148;16.326;2022-08-03T00:48:47;2.90;;;2.70;;
10565;SDS011;5331;48.148;16.326;2022-08-03T00:51:14;2.50;;;2.30;;
10565;SDS011;5331;48.148;16.326;2022-08-03T00:53:41;3.05;;;2.85;;
10565;SDS011;5331;48.148;16.326;2022-08-03T00:56:13;3.05;;;2.85;;
10565;SDS011;5331;48.148;16.326;2022-08-03T00:58:40;2.97;;;2.72;;
10565;SDS011;5331;48.148;16.326;2022-08-03T01:01:08;2.60;;;2.50;;
10565;SDS011;5331;48.148;16.326;2022-08-03T01:03:36;2.80;;;2.60;;
10565;SDS011;5331;48.148;16.326;2022-08-03T01:06:04;3.20;;;2.90;;
10565;SDS011;5331;48.148;16.326;2022-08-03T01:08:39;2.80;;;2.60;;
10565;SDS011;5331;48.148;16.326;2022-08-03T01:11:16;2.88;;;2.67;;
10565;SDS011;5331;48.148;16.326;2022-08-03T01:13:50;2.70;;;2.50;;
10565;SDS011;5331;48.148;16.326;2022-08-03T01:16:26;2.50;;;2.40;;
10565;SDS011;5331;48.148;16.326;2022-08-03T01:18:57;2.55;;;2.45;;
10565;SDS011;5331;48.148;16.326;2022-08-03T01:21:30;2.97;;;2.80;;
10565;SDS011;5331;48.148;16.326;2022-08-03T01:24:03;3.00;;;2.80;;
10565;SDS011;5331;48.148;16.326;2022-08-03T01:26:52;2.83;;;2.63;;
10565;SDS011;5331;48.148;16.326;2022-08-03T01:32:25;2.97;;;2.78;;
10565;SDS011;5331;48.148;16.326;2022-08-03T01:35:00;2.83;;;2.63;;
10565;SDS011;5331;48.148;16.326;2022-08-03T01:37:31;2.85;;;2.70;;
10565;SDS011;5331;48.148;16.326;2022-08-03T01:40:02;2.83;;;2.70;;
10565;SDS011;5331;48.148;16.326;2022-08-03T01:42:31;2.42;;;2.33;;
10565;SDS011;5331;48.148;16.326;2022-08-03T01:45:01;3.00;;;2.80;;
10565;SDS011;5331;48.148;16.326;2022-08-03T01:47:29;2.97;;;2.78;;
10565;SDS011;5331;48.148;16.326;2022-08-03T01:49:57;2.85;;;2.65;;
10565;SDS011;5331;48.148;16.326;2022-08-03T01:52:25;3.10;;;2.80;;
10565;SDS011;5331;48.148;16.326;2022-08-03T01:54:54;2.70;;;2.50;;
10565;SDS011;5331;48.148;16.326;2022-08-03T01:57:21;3.35;;;3.15;;
10565;SDS011;5331;48.148;16.326;2022-08-03T01:59:50;2.92;;;2.72;;
10565;SDS011;5331;48.148;16.326;2022-08-03T02:02:22;3.00;;;2.80;;
10565;SDS011;5331;48.148;16.326;2022-08-03T02:04:52;3.00;;;2.80;;
10565;SDS011;5331;48.148;16.326;2022-08-03T02:07:21;3.08;;;2.88;;
10565;SDS011;5331;48.148;16.326;2022-08-03T02:09:50;2.95;;;2.75;;
10565;SDS011;5331;48.148;16.326;2022-08-03T02:12:18;3.13;;;2.92;;
10565;SDS011;5331;48.148;16.326;2022-08-03T02:14:47;3.30;;;3.10;;
10565;SDS011;5331;48.148;16.326;2022-08-03T02:17:15;3.03;;;2.75;;
10565;SDS011;5331;48.148;16.326;2022-08-03T02:19:44;2.70;;;2.60;;
10565;SDS011;5331;48.148;16.326;2022-08-03T02:22:12;3.13;;;2.92;;
10565;SDS011;5331;48.148;16.326;2022-08-03T02:24:40;2.70;;;2.50;;
10565;SDS011;5331;48.148;16.326;2022-08-03T02:27:09;3.00;;;2.80;;
10565;SDS011;5331;48.148;16.326;2022-08-03T02:29:41;3.35;;;2.70;;
10565;SDS011;5331;48.148;16.326;2022-08-03T02:32:13;3.20;;;3.00;;
10565;SDS011;5331;48.148;16.326;2022-08-03T02:34:45;2.80;;;2.67;;
10565;SDS011;5331;48.148;16.326;2022-08-03T02:37:17;3.10;;;2.90;;
10565;SDS011;5331;48.148;16.326;2022-08-03T02:39:45;3.15;;;2.95;;
10565;SDS011;5331;48.148;16.326;2022-08-03T02:42:13;2.80;;;2.70;;
10565;SDS011;5331;48.148;16.326;2022-08-03T02:44:41;2.90;;;2.70;;
10565;SDS011;5331;48.148;16.326;2022-08-03T02:47:13;2.90;;;2.70;;
10565;SDS011;5331;48.148;16.326;2022-08-03T02:49:44;2.80;;;2.60;;
10565;SDS011;5331;48.148;16.326;2022-08-03T02:52:16;2.85;;;2.72;;
10565;SDS011;5331;48.148;16.326;2022-08-03T02:54:44;2.90;;;2.70;;
10565;SDS011;5331;48.148;16.326;2022-08-03T02:57:14;3.00;;;2.78;;
10565;SDS011;5331;48.148;16.326;2022-08-03T02:59:43;2.70;;;2.60;;
10565;SDS011;5331;48.148;16.326;2022-08-03T03:02:11;2.65;;;2.55;;
10565;SDS011;5331;48.148;16.326;2022-08-03T03:04:39;2.70;;;2.60;;
10565;SDS011;5331;48.148;16.326;2022-08-03T03:07:08;3.40;;;2.70;;
10565;SDS011;5331;48.148;16.326;2022-08-03T03:09:37;2.88;;;2.78;;
10565;SDS011;5331;48.148;16.326;2022-08-03T03:12:05;2.90;;;2.70;;
10565;SDS011;5331;48.148;16.326;2022-08-03T03:14:35;3.15;;;2.95;;
10565;SDS011;5331;48.148;16.326;2022-08-03T03:17:03;3.22;;;3.00;;
10565;SDS011;5331;48.148;16.326;2022-08-03T03:19:31;2.80;;;2.60;;
10565;SDS011;5331;48.148;16.326;2022-08-03T03:21:59;5.13;;;3.00;;
10565;SDS011;5331;48.148;16.326;2022-08-03T03:24:29;3.03;;;2.78;;
10565;SDS011;5331;48.148;16.326;2022-08-03T03:26:56;3.38;;;3.17;;
10565;SDS011;5331;48.148;16.326;2022-08-03T03:29:23;3.00;;;2.80;;
10565;SDS011;5331;48.148;16.326;2022-08-03T03:31:51;3.42;;;3.22;;
10565;SDS011;5331;48.148;16.326;2022-08-03T03:34:18;3.00;;;2.80;;
10565;SDS011;5331;48.148;16.326;2022-08-03T03:36:45;3.03;;;2.83;;
10565;SDS011;5331;48.148;16.326;2022-08-03T03:39:12;2.90;;;2.80;;
10565;SDS011;5331;48.148;16.326;2022-08-03T03:41:41;2.83;;;2.63;;
10565;SDS011;5331;48.148;16.326;2022-08-03T03:44:08;2.70;;;2.60;;
10565;SDS011;5331;48.148;16.326;2022-08-03T03:46:35;3.40;;;3.10;;
10565;SDS011;5331;48.148;16.326;2022-08-03T03:49:04;3.58;;;3.00;;
10565;SDS011;5331;48.148;16.326;2022-08-03T03:51:31;3.00;;;2.80;;
10565;SDS011;5331;48.148;16.326;2022-08-03T03:53:59;3.15;;;2.95;;
10565;SDS011;5331;48.148;16.326;2022-08-03T03:56:28;3.17;;;2.97;;
10565;SDS011;5331;48.148;16.326;2022-08-03T03:58:57;3.20;;;3.00;;
10565;SDS011;5331;48.148;16.326;2022-08-03T04:01:25;3.08;;;2.88;;
10565;SDS011;5331;48.148;16.326;2022-08-03T04:03:52;3.08;;;2.88;;
10565;SDS011;5331;48.148;16.326;2022-08-03T04:06:19;3.05;;;2.85;;
10565;SDS011;5331;48.148;16.326;2022-08-03T04:09:03;3.20;;;3.00;;
10565;SDS011;5331;48.148;16.326;2022-08-03T04:11:50;3.35;;;2.90;;
10565;SDS011;5331;48.148;16.326;2022-08-03T04:14:21;3.28;;;3.00;;
10565;SDS011;5331;48.148;16.326;2022-08-03T04:16:50;3.17;;;2.97;;
10565;SDS011;5331;48.148;16.326;2022-08-03T04:19:23;2.88;;;2.72;;
10565;SDS011;5331;48.148;16.326;2022-08-03T04:21:55;3.13;;;2.92;;
10565;SDS011;5331;48.148;16.326;2022-08-03T04:24:26;3.25;;;3.05;;
10565;SDS011;5331;48.148;16.326;2022-08-03T04:26:59;3.33;;;3.13;;
10565;SDS011;5331;48.148;16.326;2022-08-03T04:29:31;2.97;;;2.80;;
10565;SDS011;5331;48.148;16.326;2022-08-03T04:32:02;3.08;;;2.85;;
10565;SDS011;5331;48.148;16.326;2022-08-03T04:34:31;3.00;;;2.80;;
10565;SDS011;5331;48.148;16.326;2022-08-03T04:36:59;3.25;;;3.05;;
10565;SDS011;5331;48.148;16.326;2022-08-03T04:39:29;3.67;;;3.38;;
10565;SDS011;5331;48.148;16.326;2022-08-03T04:41:59;4.20;;;3.38;;
10565;SDS011;5331;48.148;16.326;2022-08-03T04:44:28;4.03;;;3.72;;
10565;SDS011;5331;48.148;16.326;2022-08-03T04:47:00;3.80;;;3.50;;
10565;SDS011;5331;48.148;16.326;2022-08-03T04:49:28;4.40;;;4.00;;
10565;SDS011;5331;48.148;16.326;2022-08-03T04:51:55;5.20;;;4.30;;
10565;SDS011;5331;48.148;16.326;2022-08-03T04:54:22;4.80;;;4.30;;
10565;SDS011;5331;48.148;16.326;2022-08-03T04:56:49;4.80;;;4.40;;
10565;SDS011;5331;48.148;16.326;2022-08-03T04:59:16;5.20;;;4.63;;
10565;SDS011;5331;48.148;16.326;2022-08-03T05:01:44;5.65;;;4.60;;
10565;SDS011;5331;48.148;16.326;2022-08-03T05:04:11;4.70;;;4.30;;
10565;SDS011;5331;48.148;16.326;2022-08-03T05:06:38;4.57;;;4.18;;
10565;SDS011;5331;48.148;16.326;2022-08-03T05:09:05;4.97;;;4.57;;
10565;SDS011;5331;48.148;16.326;2022-08-03T05:11:32;4.43;;;4.05;;
10565;SDS011;5331;48.148;16.326;2022-08-03T05:13:59;5.00;;;4.50;;
10565;SDS011;5331;48.148;16.326;2022-08-03T05:16:26;4.93;;;4.07;;
10565;SDS011;5331;48.148;16.326;2022-08-03T05:18:54;5.07;;;4.45;;
10565;SDS011;5331;48.148;16.326;2022-08-03T05:21:21;4.97;;;4.57;;
10565;SDS011;5331;48.148;16.326;2022-08-03T05:23:48;4.63;;;4.22;;
10565;SDS011;5331;48.148;16.326;2022-08-03T05:26:15;4.60;;;4.22;;
10565;SDS011;5331;48.148;16.326;2022-08-03T05:28:42;4.38;;;3.97;;
10565;SDS011;5331;48.148;16.326;2022-08-03T05:31:09;4.53;;;4.20;;
10565;SDS011;5331;48.148;16.326;2022-08-03T05:33:37;4.82;;;4.38;;
10565;SDS011;5331;48.148;16.326;2022-08-03T05:36:06;5.22;;;4.45;;
10565;SDS011;5331;48.148;16.326;2022-08-03T05:38:33;5.57;;;4.63;;
10565;SDS011;5331;48.148;16.326;2022-08-03T05:41:00;3.97;;;3.67;;
10565;SDS011;5331;48.148;16.326;2022-08-03T05:43:28;4.25;;;3.85;;
10565;SDS011;5331;48.148;16.326;2022-08-03T05:45:56;4.20;;;3.90;;
10565;SDS011;5331;48.148;16.326;2022-08-03T05:48:23;4.53;;;4.15;;
10565;SDS011;5331;48.148;16.326;2022-08-03T05:50:50;4.47;;;4.07;;
10565;SDS011;5331;48.148;16.326;2022-08-03T05:53:18;5.45;;;4.00;;
10565;SDS011;5331;48.148;16.326;2022-08-03T05:55:45;4.07;;;3.70;;
10565;SDS011;5331;48.148;16.326;2022-08-03T05:58:12;4.28;;;3.92;;
10565;SDS011;5331;48.148;16.326;2022-08-03T06:00:39;6.57;;;4.40;;
10565;SDS011;5331;48.148;16.326;2022-08-03T06:03:06;3.97;;;3.67;;
10565;SDS011;5331;48.148;16.326;2022-08-03T06:05:33;3.80;;;3.50;;
10565;SDS011;5331;48.148;16.326;2022-08-03T06:08:00;3.85;;;3.40;;
10565;SDS011;5331;48.148;16.326;2022-08-03T06:10:29;4.28;;;3.95;;
10565;SDS011;5331;48.148;16.326;2022-08-03T06:12:56;3.92;;;3.63;;
10565;SDS011;5331;48.148;16.326;2022-08-03T06:15:23;4.03;;;3.47;;
10565;SDS011;5331;48.148;16.326;2022-08-03T06:17:50;3.67;;;3.38;;
10565;SDS011;5331;48.148;16.326;2022-08-03T06:20:17;3.83;;;3.50;;
10565;SDS011;5331;48.148;16.326;2022-08-03T06:22:46;3.75;;;3.45;;
10565;SDS011;5331;48.148;16.326;2022-08-03T06:25:14;3.35;;;2.90;;
10565;SDS011;5331;48.148;16.326;2022-08-03T06:27:42;3.08;;;2.88;;
10565;SDS011;5331;48.148;16.326;2022-08-03T06:30:09;3.50;;;3.20;;
10565;SDS011;5331;48.148;16.326;2022-08-03T06:32:37;3.30;;;3.10;;
10565;SDS011;5331;48.148;16.326;2022-08-03T06:35:05;3.90;;;3.60;;
10565;SDS011;5331;48.148;16.326;2022-08-03T06:37:40;5.22;;;3.65;;
10565;SDS011;5331;48.148;16.326;2022-08-03T06:40:08;3.67;;;3.40;;
10565;SDS011;5331;48.148;16.326;2022-08-03T06:42:36;3.90;;;3.58;;
10565;SDS011;5331;48.148;16.326;2022-08-03T06:45:05;3.50;;;3.25;;
10565;SDS011;5331;48.148;16.326;2022-08-03T06:47:34;3.25;;;3.00;;
10565;SDS011;5331;48.148;16.326;2022-08-03T06:50:01;2.92;;;2.80;;
10565;SDS011;5331;48.148;16.326;2022-08-03T06:52:28;3.22;;;2.90;;
10565;SDS011;5331;48.148;16.326;2022-08-03T06:54:55;5.53;;;2.50;;
10565;SDS011;5331;48.148;16.326;2022-08-03T06:57:22;2.88;;;2.78;;
10565;SDS011;5331;48.148;16.326;2022-08-03T06:59:49;2.80;;;2.60;;
10565;SDS011;5331;48.148;16.326;2022-08-03T07:02:18;3.10;;;2.83;;
10565;SDS011;5331;48.148;16.326;2022-08-03T07:04:45;3.10;;;2.90;;
10565;SDS011;5331;48.148;16.326;2022-08-03T07:07:12;3.00;;;2.88;;
10565;SDS011;5331;48.148;16.326;2022-08-03T07:09:39;2.90;;;2.80;;
10565;SDS011;5331;48.148;16.326;2022-08-03T07:12:06;3.45;;;3.13;;
10565;SDS011;5331;48.148;16.326;2022-08-03T07:14:33;2.95;;;2.75;;
10565;SDS011;5331;48.148;16.326;2022-08-03T07:16:59;3.10;;;2.90;;
10565;SDS011;5331;48.148;16.326;2022-08-03T07:19:28;3.17;;;2.97;;
10565;SDS011;5331;48.148;16.326;2022-08-03T07:21:55;3.33;;;3.03;;
10565;SDS011;5331;48.148;16.326;2022-08-03T07:24:23;3.95;;;3.10;;
10565;SDS011;5331;48.148;16.326;2022-08-03T07:26:49;4.15;;;3.22;;
10565;SDS011;5331;48.148;16.326;2022-08-03T07:29:16;3.33;;;3.13;;
10565;SDS011;5331;48.148;16.326;2022-08-03T07:31:43;3.28;;;2.92;;
10565;SDS011;5331;48.148;16.326;2022-08-03T07:34:10;3.40;;;3.13;;
10565;SDS011;5331;48.148;16.326;2022-08-03T07:36:39;3.53;;;2.90;;
10565;SDS011;5331;48.148;16.326;2022-08-03T07:39:06;3.50;;;3.03;;
10565;SDS011;5331;48.148;16.326;2022-08-03T07:41:33;4.05;;;3.25;;
10565;SDS011;5331;48.148;16.326;2022-08-03T07:44:00;3.30;;;3.10;;
10565;SDS011;5331;48.148;16.326;2022-08-03T07:46:26;3.47;;;3.17;;
10565;SDS011;5331;48.148;16.326;2022-08-03T07:48:53;6.05;;;2.80;;
10565;SDS011;5331;48.148;16.326;2022-08-03T07:51:20;3.00;;;2.80;;
10565;SDS011;5331;48.148;16.326;2022-08-03T07:53:48;4.13;;;3.38;;
10565;SDS011;5331;48.148;16.326;2022-08-03T07:56:15;3.17;;;2.97;;
10565;SDS011;5331;48.148;16.326;2022-08-03T07:58:43;3.42;;;3.17;;
10565;SDS011;5331;48.148;16.326;2022-08-03T08:01:10;3.42;;;2.97;;
10565;SDS011;5331;48.148;16.326;2022-08-03T08:03:37;3.25;;;3.05;;
10565;SDS011;5331;48.148;16.326;2022-08-03T08:06:04;3.40;;;3.20;;
10565;SDS011;5331;48.148;16.326;2022-08-03T08:08:32;3.20;;;3.00;;
10565;SDS011;5331;48.148;16.326;2022-08-03T08:11:00;3.40;;;3.05;;
10565;SDS011;5331;48.148;16.326;2022-08-03T08:13:27;3.08;;;2.88;;
10565;SDS011;5331;48.148;16.326;2022-08-03T08:15:54;3.58;;;3.28;;
10565;SDS011;5331;48.148;16.326;2022-08-03T08:18:21;3.20;;;3.00;;
10565;SDS011;5331;48.148;16.326;2022-08-03T08:20:48;3.38;;;3.17;;
10565;SDS011;5331;48.148;16.326;2022-08-03T08:23:16;3.33;;;3.13;;
10565;SDS011;5331;48.148;16.326;2022-08-03T08:25:47;3.28;;;3.08;;
10565;SDS011;5331;48.148;16.326;2022-08-03T08:28:17;3.10;;;2.90;;
10565;SDS011;5331;48.148;16.326;2022-08-03T08:30:44;3.20;;;3.00;;
10565;SDS011;5331;48.148;16.326;2022-08-03T08:33:11;3.10;;;2.90;;
10565;SDS011;5331;48.148;16.326;2022-08-03T08:35:38;2.40;;;2.30;;
10565;SDS011;5331;48.148;16.326;2022-08-03T08:38:05;3.38;;;3.17;;
10565;SDS011;5331;48.148;16.326;2022-08-03T08:40:32;2.67;;;2.58;;
10565;SDS011;5331;48.148;16.326;2022-08-03T08:42:59;2.38;;;2.28;;
10565;SDS011;5331;48.148;16.326;2022-08-03T08:45:29;3.03;;;2.83;;
10565;SDS011;5331;48.148;16.326;2022-08-03T08:47:57;4.15;;;2.80;;
10565;SDS011;5331;48.148;16.326;2022-08-03T08:50:27;3.03;;;2.78;;
10565;SDS011;5331;48.148;16.326;2022-08-03T08:52:55;2.45;;;2.30;;
10565;SDS011;5331;48.148;16.326;2022-08-03T08:55:25;2.70;;;2.50;;
10565;SDS011;5331;48.148;16.326;2022-08-03T08:57:55;3.03;;;2.83;;
10565;SDS011;5331;48.148;16.326;2022-08-03T09:00:24;3.00;;;2.70;;
10565;SDS011;5331;48.148;16.326;2022-08-03T09:02:52;3.55;;;3.25;;
10565;SDS011;5331;48.148;16.326;2022-08-03T09:05:19;3.22;;;3.03;;
10565;SDS011;5331;48.148;16.326;2022-08-03T09:07:46;3.15;;;2.60;;
10565;SDS011;5331;48.148;16.326;2022-08-03T09:10:14;2.60;;;2.40;;
10565;SDS011;5331;48.148;16.326;2022-08-03T09:12:44;3.08;;;2.80;;
10565;SDS011;5331;48.148;16.326;2022-08-03T09:15:19;3.00;;;2.78;;
10565;SDS011;5331;48.148;16.326;2022-08-03T09:17:47;2.95;;;2.85;;
10565;SDS011;5331;48.148;16.326;2022-08-03T09:20:17;3.10;;;2.80;;
10565;SDS011;5331;48.148;16.326;2022-08-03T09:22:55;2.95;;;2.70;;
10565;SDS011;5331;48.148;16.326;2022-08-03T09:25:30;2.90;;;2.80;;
10565;SDS011;5331;48.148;16.326;2022-08-03T09:28:05;3.03;;;2.83;;
10565;SDS011;5331;48.148;16.326;2022-08-03T09:30:34;3.28;;;3.05;;
10565;SDS011;5331;48.148;16.326;2022-08-03T09:33:02;2.75;;;2.65;;
10565;SDS011;5331;48.148;16.326;2022-08-03T09:35:31;2.70;;;2.60;;
10565;SDS011;5331;48.148;16.326;2022-08-03T09:38:09;2.70;;;2.60;;
10565;SDS011;5331;48.148;16.326;2022-08-03T09:40:37;2.75;;;2.65;;
10565;SDS011;5331;48.148;16.326;2022-08-03T09:43:04;2.70;;;2.50;;
10565;SDS011;5331;48.148;16.326;2022-08-03T09:45:32;2.60;;;2.45;;
10565;SDS011;5331;48.148;16.326;2022-08-03T09:50:49;3.00;;;2.80;;
10565;SDS011;5331;48.148;16.326;2022-08-03T09:53:18;2.70;;;2.50;;
10565;SDS011;5331;48.148;16.326;2022-08-03T09:55:52;3.40;;;2.80;;
10565;SDS011;5331;48.148;16.326;2022-08-03T09:58:20;3.15;;;2.60;;
10565;SDS011;5331;48.148;16.326;2022-08-03T10:00:54;2.65;;;2.45;;
10565;SDS011;5331;48.148;16.326;2022-08-03T10:03:23;2.33;;;2.22;;
10565;SDS011;5331;48.148;16.326;2022-08-03T10:05:53;2.55;;;2.35;;
10565;SDS011;5331;48.148;16.326;2022-08-03T10:08:21;2.50;;;2.40;;
10565;SDS011;5331;48.148;16.326;2022-08-03T10:10:49;2.40;;;2.30;;
10565;SDS011;5331;48.148;16.326;2022-08-03T10:13:18;2.60;;;2.40;;
10565;SDS011;5331;48.148;16.326;2022-08-03T10:15:46;2.85;;;2.60;;
10565;SDS011;5331;48.148;16.326;2022-08-03T10:18:13;2.65;;;2.53;;
10565;SDS011;5331;48.148;16.326;2022-08-03T10:20:42;2.28;;;2.17;;
10565;SDS011;5331;48.148;16.326;2022-08-03T10:23:12;2.40;;;2.30;;
10565;SDS011;5331;48.148;16.326;2022-08-03T10:25:41;2.63;;;2.42;;
10565;SDS011;5331;48.148;16.326;2022-08-03T10:28:14;2.78;;;2.58;;
10565;SDS011;5331;48.148;16.326;2022-08-03T10:30:43;2.70;;;2.50;;
10565;SDS011;5331;48.148;16.326;2022-08-03T10:33:14;2.70;;;2.60;;
10565;SDS011;5331;48.148;16.326;2022-08-03T10:35:44;2.70;;;2.50;;
10565;SDS011;5331;48.148;16.326;2022-08-03T10:38:15;2.70;;;2.60;;
10565;SDS011;5331;48.148;16.326;2022-08-03T10:40:45;3.85;;;2.50;;
10565;SDS011;5331;48.148;16.326;2022-08-03T10:43:17;2.50;;;2.30;;
10565;SDS011;5331;48.148;16.326;2022-08-03T10:45:45;2.35;;;2.25;;
10565;SDS011;5331;48.148;16.326;2022-08-03T10:48:13;2.60;;;2.50;;
10565;SDS011;5331;48.148;16.326;2022-08-03T10:50:40;2.35;;;2.25;;
10565;SDS011;5331;48.148;16.326;2022-08-03T10:53:08;2.90;;;2.63;;
10565;SDS011;5331;48.148;16.326;2022-08-03T10:55:37;2.50;;;2.30;;
10565;SDS011;5331;48.148;16.326;2022-08-03T11:01:15;2.40;;;2.30;;
10565;SDS011;5331;48.148;16.326;2022-08-03T11:06:41;2.58;;;2.47;;
10565;SDS011;5331;48.148;16.326;2022-08-03T11:09:18;2.42;;;2.33;;
10565;SDS011;5331;48.148;16.326;2022-08-03T11:11:47;2.58;;;2.47;;
10565;SDS011;5331;48.148;16.326;2022-08-03T11:14:16;2.50;;;2.40;;
10565;SDS011;5331;48.148;16.326;2022-08-03T11:16:45;2.75;;;2.55;;
10565;SDS011;5331;48.148;16.326;2022-08-03T11:19:14;2.88;;;2.45;;
10565;SDS011;5331;48.148;16.326;2022-08-03T11:21:56;3.47;;;2.60;;
10565;SDS011;5331;48.148;16.326;2022-08-03T11:27:24;2.78;;;2.58;;
10565;SDS011;5331;48.148;16.326;2022-08-03T11:29:53;2.80;;;2.53;;
10565;SDS011;5331;48.148;16.326;2022-08-03T11:32:49;2.78;;;2.58;;
10565;SDS011;5331;48.148;16.326;2022-08-03T11:35:18;2.88;;;2.67;;
10565;SDS011;5331;48.148;16.326;2022-08-03T11:40:49;2.58;;;2.47;;
10565;SDS011;5331;48.148;16.326;2022-08-03T11:46:13;2.50;;;2.40;;
10565;SDS011;5331;48.148;16.326;2022-08-03T11:48:45;2.70;;;2.50;;
10565;SDS011;5331;48.148;16.326;2022-08-03T11:51:20;2.75;;;2.58;;
10565;SDS011;5331;48.148;16.326;2022-08-03T11:53:51;2.60;;;2.40;;
10565;SDS011;5331;48.148;16.326;2022-08-03T11:56:19;2.40;;;2.30;;
10565;SDS011;5331;48.148;16.326;2022-08-03T11:58:48;2.50;;;2.40;;
10565;SDS011;5331;48.148;16.326;2022-08-03T12:01:17;2.85;;;2.50;;
10565;SDS011;5331;48.148;16.326;2022-08-03T12:03:45;2.40;;;2.30;;
10565;SDS011;5331;48.148;16.326;2022-08-03T12:06:13;2.50;;;2.40;;
10565;SDS011;5331;48.148;16.326;2022-08-03T12:08:41;2.28;;;2.17;;
10565;SDS011;5331;48.148;16.326;2022-08-03T12:11:11;2.60;;;2.40;;
10565;SDS011;5331;48.148;16.326;2022-08-03T12:13:40;2.33;;;2.22;;
10565;SDS011;5331;48.148;16.326;2022-08-03T12:16:11;2.78;;;2.60;;
10565;SDS011;5331;48.148;16.326;2022-08-03T12:18:43;2.20;;;2.10;;
10565;SDS011;5331;48.148;16.326;2022-08-03T12:21:10;2.45;;;2.35;;
10565;SDS011;5331;48.148;16.326;2022-08-03T12:23:38;2.95;;;2.15;;
10565;SDS011;5331;48.148;16.326;2022-08-03T12:26:06;2.40;;;2.17;;
10565;SDS011;5331;48.148;16.326;2022-08-03T12:28:34;3.08;;;2.40;;
10565;SDS011;5331;48.148;16.326;2022-08-03T12:31:02;2.20;;;2.10;;
10565;SDS011;5331;48.148;16.326;2022-08-03T12:33:31;2.33;;;2.20;;
10565;SDS011;5331;48.148;16.326;2022-08-03T12:36:18;2.20;;;2.10;;
10565;SDS011;5331;48.148;16.326;2022-08-03T12:38:52;2.42;;;2.33;;
10565;SDS011;5331;48.148;16.326;2022-08-03T12:41:26;2.85;;;2.30;;
10565;SDS011;5331;48.148;16.326;2022-08-03T12:43:54;2.53;;;2.40;;
10565;SDS011;5331;48.148;16.326;2022-08-03T12:46:21;7.00;;;2.30;;
10565;SDS011;5331;48.148;16.326;2022-08-03T12:48:59;2.30;;;2.20;;
10565;SDS011;5331;48.148;16.326;2022-08-03T12:51:33;1.95;;;1.95;;
10565;SDS011;5331;48.148;16.326;2022-08-03T12:54:02;2.15;;;2.05;;
10565;SDS011;5331;48.148;16.326;2022-08-03T12:56:29;2.88;;;2.63;;
10565;SDS011;5331;48.148;16.326;2022-08-03T12:58:56;2.50;;;2.40;;
10565;SDS011;5331;48.148;16.326;2022-08-03T13:01:23;2.50;;;2.40;;
10565;SDS011;5331;48.148;16.326;2022-08-03T13:03:51;3.13;;;2.75;;
10565;SDS011;5331;48.148;16.326;2022-08-03T13:06:21;3.05;;;2.80;;
10565;SDS011;5331;48.148;16.326;2022-08-03T13:08:49;2.85;;;2.40;;
10565;SDS011;5331;48.148;16.326;2022-08-03T13:11:27;2.70;;;2.60;;
10565;SDS011;5331;48.148;16.326;2022-08-03T13:13:54;2.40;;;2.30;;
10565;SDS011;5331;48.148;16.326;2022-08-03T13:16:21;2.80;;;2.42;;
10565;SDS011;5331;48.148;16.326;2022-08-03T13:18:49;4.60;;;2.50;;
10565;SDS011;5331;48.148;16.326;2022-08-03T13:21:17;2.50;;;2.40;;
10565;SDS011;5331;48.148;16.326;2022-08-03T13:23:46;2.88;;;2.42;;
10565;SDS011;5331;48.148;16.326;2022-08-03T13:26:13;3.08;;;2.60;;
10565;SDS011;5331;48.148;16.326;2022-08-03T13:28:40;2.90;;;2.70;;
10565;SDS011;5331;48.148;16.326;2022-08-03T13:31:07;3.22;;;2.60;;
10565;SDS011;5331;48.148;16.326;2022-08-03T13:33:34;2.67;;;2.47;;
10565;SDS011;5331;48.148;16.326;2022-08-03T13:36:03;2.65;;;2.53;;
10565;SDS011;5331;48.148;16.326;2022-08-03T13:38:30;2.40;;;2.30;;
10565;SDS011;5331;48.148;16.326;2022-08-03T13:40:58;2.45;;;2.35;;
10565;SDS011;5331;48.148;16.326;2022-08-03T13:43:27;2.72;;;2.60;;
10565;SDS011;5331;48.148;16.326;2022-08-03T13:45:54;2.85;;;2.55;;
10565;SDS011;5331;48.148;16.326;2022-08-03T13:48:21;3.15;;;2.67;;
10565;SDS011;5331;48.148;16.326;2022-08-03T13:50:48;4.00;;;2.70;;
10565;SDS011;5331;48.148;16.326;2022-08-03T13:53:15;3.30;;;2.60;;
10565;SDS011;5331;48.148;16.326;2022-08-03T13:55:42;2.60;;;2.50;;
10565;SDS011;5331;48.148;16.326;2022-08-03T13:58:10;2.50;;;2.40;;
10565;SDS011;5331;48.148;16.326;2022-08-03T14:00:37;2.90;;;2.70;;
10565;SDS011;5331;48.148;16.326;2022-08-03T14:03:05;2.55;;;2.35;;
10565;SDS011;5331;48.148;16.326;2022-08-03T14:05:32;2.78;;;2.63;;
10565;SDS011;5331;48.148;16.326;2022-08-03T14:07:59;2.53;;;2.42;;
10565;SDS011;5331;48.148;16.326;2022-08-03T14:10:26;2.40;;;2.30;;
10565;SDS011;5331;48.148;16.326;2022-08-03T14:12:53;2.53;;;2.42;;
10565;SDS011;5331;48.148;16.326;2022-08-03T14:15:25;2.60;;;2.50;;
10565;SDS011;5331;48.148;16.326;2022-08-03T14:17:53;2.50;;;2.40;;
10565;SDS011;5331;48.148;16.326;2022-08-03T14:20:20;2.47;;;2.28;;
10565;SDS011;5331;48.148;16.326;2022-08-03T14:22:47;2.70;;;2.50;;
10565;SDS011;5331;48.148;16.326;2022-08-03T14:25:14;2.75;;;2.55;;
10565;SDS011;5331;48.148;16.326;2022-08-03T14:27:41;2.83;;;2.67;;
10565;SDS011;5331;48.148;16.326;2022-08-03T14:30:08;2.60;;;2.50;;
10565;SDS011;5331;48.148;16.326;2022-08-03T14:32:37;2.75;;;2.63;;
10565;SDS011;5331;48.148;16.326;2022-08-03T14:35:04;2.70;;;2.60;;
10565;SDS011;5331;48.148;16.326;2022-08-03T14:37:32;2.50;;;2.40;;
10565;SDS011;5331;48.148;16.326;2022-08-03T14:39:59;2.47;;;2.38;;
10565;SDS011;5331;48.148;16.326;2022-08-03T14:42:26;2.45;;;2.35;;
10565;SDS011;5331;48.148;16.326;2022-08-03T14:44:53;2.72;;;2.50;;
10565;SDS011;5331;48.148;16.326;2022-08-03T14:47:19;2.55;;;2.45;;
10565;SDS011;5331;48.148;16.326;2022-08-03T14:49:48;3.20;;;2.60;;
10565;SDS011;5331;48.148;16.326;2022-08-03T14:52:15;2.60;;;2.42;;
10565;SDS011;5331;48.148;16.326;2022-08-03T14:54:42;3.00;;;2.70;;
10565;SDS011;5331;48.148;16.326;2022-08-03T14:57:10;2.47;;;2.30;;
10565;SDS011;5331;48.148;16.326;2022-08-03T14:59:37;2.60;;;2.40;;
10565;SDS011;5331;48.148;16.326;2022-08-03T15:02:04;2.70;;;2.53;;
10565;SDS011;5331;48.148;16.326;2022-08-03T15:04:31;2.70;;;2.60;;
10565;SDS011;5331;48.148;16.326;2022-08-03T15:06:59;2.60;;;2.40;;
10565;SDS011;5331;48.148;16.326;2022-08-03T15:09:26;2.72;;;2.33;;
10565;SDS011;5331;48.148;16.326;2022-08-03T15:11:53;2.67;;;2.47;;
10565;SDS011;5331;48.148;16.326;2022-08-03T15:14:20;2.70;;;2.60;;
10565;SDS011;5331;48.148;16.326;2022-08-03T15:16:47;2.50;;;2.30;;
10565;SDS011;5331;48.148;16.326;2022-08-03T15:19:13;2.45;;;2.35;;